createdAt,value
2023-04-27T00:00:27.117Z,101316.31
2023-04-27T00:02:55.317Z,101322.38
2023-04-27T00:05:23.453Z,101319.31
2023-04-27T00:07:51.371Z,101318.84
2023-04-27T00:10:19.342Z,101313.72
2023-04-27T00:12:48.709Z,101309.84
2023-04-27T00:15:16.530Z,101315.16
2023-04-27T00:17:44.504Z,101309.97
2023-04-27T00:20:12.956Z,101313.50
2023-04-27T00:22:41.017Z,101313.41
2023-04-27T00:25:09.792Z,101313.81
2023-04-27T00:27:37.638Z,101312.69
2023-04-27T00:30:08.268Z,101315.06
2023-04-27T00:32:36.241Z,101307.41
2023-04-27T00:35:04.398Z,101308.16
2023-04-27T00:37:32.443Z,101312.00
2023-04-27T00:40:00.263Z,101311.78
2023-04-27T00:42:28.038Z,101315.50
2023-04-27T00:44:58.535Z,101312.75
2023-04-27T00:47:27.879Z,101312.63
2023-04-27T00:49:55.889Z,101317.59
2023-04-27T00:52:27.096Z,101317.91
2023-04-27T00:54:55.361Z,101315.91
2023-04-27T00:57:23.364Z,101320.50
2023-04-27T00:59:51.384Z,101317.25
2023-04-27T01:02:19.440Z,101311.88
2023-04-27T01:04:50.462Z,101320.16
2023-04-27T01:07:18.592Z,101323.78
2023-04-27T01:09:46.597Z,101316.03
2023-04-27T01:12:14.507Z,101329.31
2023-04-27T01:14:43.712Z,101328.72
2023-04-27T01:17:11.912Z,101321.09
2023-04-27T01:19:40.355Z,101318.22
2023-04-27T01:22:09.599Z,101329.16
2023-04-27T01:24:38.847Z,101333.50
2023-04-27T01:27:06.888Z,101337.94
2023-04-27T01:29:34.774Z,101330.75
2023-04-27T01:32:03.671Z,101335.09
2023-04-27T01:34:33.380Z,101342.31
2023-04-27T01:37:01.148Z,101339.91
2023-04-27T01:39:29.078Z,101344.94
2023-04-27T01:41:58.659Z,101355.94
2023-04-27T01:44:26.629Z,101354.00
2023-04-27T01:46:55.350Z,101363.19
2023-04-27T01:49:23.337Z,101369.22
2023-04-27T01:51:51.441Z,101360.63
2023-04-27T01:54:19.210Z,101370.75
2023-04-27T01:56:47.033Z,101375.53
2023-04-27T01:59:16.333Z,101387.16
2023-04-27T02:01:44.155Z,101386.38
2023-04-27T02:04:12.587Z,101388.06
2023-04-27T02:06:41.267Z,101391.09
2023-04-27T02:09:09.333Z,101398.66
2023-04-27T02:11:40.690Z,101398.38
2023-04-27T02:14:08.579Z,101403.03
2023-04-27T02:16:38.079Z,101411.34
2023-04-27T02:19:05.987Z,101402.25
2023-04-27T02:21:33.999Z,101415.56
2023-04-27T02:24:01.938Z,101419.09
2023-04-27T02:26:30.120Z,101408.63
2023-04-27T02:28:59.350Z,101413.81
2023-04-27T02:31:28.138Z,101415.28
2023-04-27T02:33:57.237Z,101411.53
2023-04-27T02:36:27.754Z,101414.97
2023-04-27T02:38:56.371Z,101410.03
2023-04-27T02:41:24.442Z,101403.69
2023-04-27T02:43:52.688Z,101413.59
2023-04-27T02:46:20.596Z,101417.69
2023-04-27T02:48:48.442Z,101406.97
2023-04-27T02:51:17.651Z,101404.66
2023-04-27T02:53:45.434Z,101404.47
2023-04-27T02:56:13.295Z,101400.94
2023-04-27T02:58:41.309Z,101407.41
2023-04-27T03:01:10.612Z,101399.59
2023-04-27T03:03:38.682Z,101398.88
2023-04-27T03:06:07.271Z,101404.03
2023-04-27T03:08:36.678Z,101397.75
2023-04-27T03:11:12.670Z,101399.97
2023-04-27T03:13:42.628Z,101401.28
2023-04-27T03:16:11.870Z,101401.44
2023-04-27T03:18:40.481Z,101406.69
2023-04-27T03:21:09.417Z,101401.22
2023-04-27T03:23:39.177Z,101402.34
2023-04-27T03:26:07.765Z,101408.63
2023-04-27T03:28:36.130Z,101407.84
2023-04-27T03:31:06.881Z,101408.81
2023-04-27T03:33:35.150Z,101410.38
2023-04-27T03:36:04.636Z,101412.31
2023-04-27T03:38:33.141Z,101405.34
2023-04-27T03:41:03.122Z,101416.94
2023-04-27T03:43:31.091Z,101415.66
2023-04-27T03:45:59.171Z,101420.84
2023-04-27T03:48:27.692Z,101417.31
2023-04-27T03:50:56.806Z,101426.63
2023-04-27T03:53:25.123Z,101420.38
2023-04-27T03:55:53.496Z,101427.03
2023-04-27T03:58:22.790Z,101435.00
2023-04-27T04:01:10.230Z,101427.41
2023-04-27T04:03:38.690Z,101425.44
2023-04-27T04:06:09.215Z,101429.53
2023-04-27T04:08:40.283Z,101421.84
2023-04-27T04:11:08.388Z,101423.66
2023-04-27T04:13:38.736Z,101438.53
2023-04-27T04:16:08.370Z,101430.75
2023-04-27T04:18:36.958Z,101436.84
2023-04-27T04:21:05.724Z,101433.06
2023-04-27T04:23:33.963Z,101442.06
2023-04-27T04:26:02.321Z,101440.66
2023-04-27T04:28:34.543Z,101445.69
2023-04-27T04:31:05.598Z,101443.06
2023-04-27T04:33:34.051Z,101447.47
2023-04-27T04:36:04.581Z,101440.50
2023-04-27T04:38:32.950Z,101441.97
2023-04-27T04:41:01.517Z,101435.44
2023-04-27T04:43:32.802Z,101436.06
2023-04-27T04:46:06.434Z,101432.19
2023-04-27T04:48:35.463Z,101424.66
2023-04-27T04:51:03.271Z,101442.78
2023-04-27T04:53:31.356Z,101444.56
2023-04-27T04:55:59.262Z,101446.06
2023-04-27T04:58:27.495Z,101443.22
2023-04-27T05:00:55.304Z,101445.34
2023-04-27T05:03:24.833Z,101447.81
2023-04-27T05:05:52.716Z,101452.28
2023-04-27T05:08:20.590Z,101454.31
2023-04-27T05:10:51.443Z,101459.94
2023-04-27T05:13:19.371Z,101463.66
2023-04-27T05:15:47.390Z,101455.91
2023-04-27T05:18:15.301Z,101461.88
2023-04-27T05:20:44.780Z,101460.66
2023-04-27T05:23:12.580Z,101459.84
2023-04-27T05:25:42.393Z,101460.69
2023-04-27T05:28:10.867Z,101469.56
2023-04-27T05:30:39.109Z,101469.06
2023-04-27T05:33:07.519Z,101463.34
2023-04-27T05:35:36.147Z,101469.25
2023-04-27T05:38:05.491Z,101475.44
2023-04-27T05:40:33.335Z,101467.81
2023-04-27T05:43:03.450Z,101471.50
2023-04-27T05:45:31.437Z,101476.66
2023-04-27T05:48:24.834Z,101489.63
2023-04-27T05:51:00.357Z,101485.25
2023-04-27T05:53:29.608Z,101490.28
2023-04-27T05:55:59.209Z,101486.38
2023-04-27T05:58:27.038Z,101496.69
2023-04-27T06:00:55.148Z,101497.28
2023-04-27T06:03:23.222Z,101495.00
2023-04-27T06:05:58.169Z,101496.88
2023-04-27T06:08:27.265Z,101496.53
2023-04-27T06:10:56.602Z,101495.19
2023-04-27T06:13:24.770Z,101485.03
2023-04-27T06:15:52.892Z,101491.38
2023-04-27T06:18:21.128Z,101503.88
2023-04-27T06:20:49.028Z,101501.97
2023-04-27T06:23:17.035Z,101511.13
2023-04-27T06:25:45.115Z,101511.78
2023-04-27T06:28:14.285Z,101513.81
2023-04-27T06:30:43.312Z,101522.28
2023-04-27T06:33:11.912Z,101509.53
2023-04-27T06:35:40.308Z,101520.59
2023-04-27T06:38:08.365Z,101516.03
2023-04-27T06:40:37.027Z,101512.50
2023-04-27T06:43:05.066Z,101514.34
2023-04-27T06:45:34.350Z,101527.09
2023-04-27T06:48:03.123Z,101527.75
2023-04-27T06:50:31.325Z,101533.03
2023-04-27T06:52:59.308Z,101531.91
2023-04-27T06:55:27.243Z,101519.47
2023-04-27T06:57:55.313Z,101524.63
2023-04-27T07:00:23.394Z,101526.63
2023-04-27T07:02:52.925Z,101528.63
2023-04-27T07:05:21.305Z,101526.13
2023-04-27T07:07:49.257Z,101518.72
2023-04-27T07:10:17.314Z,101521.28
2023-04-27T07:12:45.483Z,101523.56
2023-04-27T07:15:13.666Z,101532.06
2023-04-27T07:17:41.816Z,101523.97
2023-04-27T07:20:11.544Z,101528.38
2023-04-27T07:22:39.885Z,101520.81
2023-04-27T07:25:08.437Z,101516.34
2023-04-27T07:27:36.685Z,101517.25
2023-04-27T07:30:05.622Z,101517.53
2023-04-27T07:32:33.891Z,101519.09
2023-04-27T07:35:01.856Z,101523.63
2023-04-27T07:37:31.434Z,101520.47
2023-04-27T07:40:00.003Z,101531.03
2023-04-27T07:42:27.920Z,101528.63
2023-04-27T07:44:57.162Z,101516.22
2023-04-27T07:47:25.193Z,101530.19
2023-04-27T07:49:53.110Z,101527.69
2023-04-27T07:52:21.268Z,101527.72
2023-04-27T07:54:50.987Z,101524.63
2023-04-27T07:57:19.142Z,101521.97
2023-04-27T07:59:47.487Z,101519.94
2023-04-27T08:02:19.560Z,101521.19
2023-04-27T08:04:48.922Z,101515.59
2023-04-27T08:07:17.950Z,101518.22
2023-04-27T08:09:46.162Z,101514.28
2023-04-27T08:12:15.400Z,101515.13
2023-04-27T08:14:43.187Z,101506.25
2023-04-27T08:17:11.338Z,101516.03
2023-04-27T08:19:39.203Z,101523.31
2023-04-27T08:22:07.035Z,101513.25
2023-04-27T08:24:34.967Z,101519.06
2023-04-27T08:27:03.336Z,101527.16
2023-04-27T08:29:32.718Z,101520.47
2023-04-27T08:32:02.806Z,101517.34
2023-04-27T08:34:31.017Z,101514.47
2023-04-27T08:36:58.953Z,101507.19
2023-04-27T08:39:26.783Z,101496.75
2023-04-27T08:41:54.605Z,101504.03
2023-04-27T08:44:22.729Z,101509.91
2023-04-27T08:46:52.228Z,101502.09
2023-04-27T08:49:20.808Z,101497.38
2023-04-27T08:51:48.918Z,101508.72
2023-04-27T08:54:16.853Z,101511.72
2023-04-27T08:56:44.848Z,101504.59
2023-04-27T08:59:17.244Z,101495.25
2023-04-27T09:01:46.918Z,101486.44
2023-04-27T09:04:17.749Z,101493.59
2023-04-27T09:06:46.202Z,101490.22
2023-04-27T09:09:23.426Z,101491.16
2023-04-27T09:11:51.447Z,101479.19
2023-04-27T09:14:20.985Z,101491.16
2023-04-27T09:16:57.379Z,101496.19
2023-04-27T09:19:27.505Z,101492.66
2023-04-27T09:22:05.365Z,101492.72
2023-04-27T09:24:33.607Z,101493.81
2023-04-27T09:27:01.696Z,101491.63
2023-04-27T09:29:36.644Z,101492.75
2023-04-27T09:32:17.201Z,101497.84
2023-04-27T09:34:46.573Z,101489.28
2023-04-27T09:37:15.536Z,101488.09
2023-04-27T09:39:43.827Z,101477.56
2023-04-27T09:42:13.479Z,101474.22
2023-04-27T09:44:41.328Z,101480.06
2023-04-27T09:47:10.745Z,101479.63
2023-04-27T09:49:38.921Z,101477.63
2023-04-27T09:52:08.175Z,101480.56
2023-04-27T09:54:37.600Z,101483.66
2023-04-27T09:57:15.924Z,101475.03
2023-04-27T10:00:02.860Z,101477.53
2023-04-27T10:02:52.759Z,101474.28
2023-04-27T10:05:37.005Z,101475.44
2023-04-27T10:08:07.496Z,101469.13
2023-04-27T10:10:44.477Z,101465.13
2023-04-27T10:13:22.789Z,101467.78
2023-04-27T10:15:51.249Z,101470.13
2023-04-27T10:18:30.608Z,101469.03
2023-04-27T10:20:59.144Z,101464.72
2023-04-27T10:23:29.177Z,101470.91
2023-04-27T10:25:57.229Z,101473.38
2023-04-27T10:28:25.205Z,101476.28
2023-04-27T10:30:53.360Z,101491.00
2023-04-27T10:33:23.809Z,101492.53
2023-04-27T10:35:56.552Z,101476.06
2023-04-27T10:38:31.367Z,101474.09
2023-04-27T10:41:01.889Z,101468.00
2023-04-27T10:43:32.310Z,101460.84
2023-04-27T10:46:09.282Z,101457.28
2023-04-27T10:48:37.383Z,101459.66
2023-04-27T10:51:06.596Z,101464.81
2023-04-27T10:53:39.030Z,101450.22
2023-04-27T10:56:08.034Z,101448.53
2023-04-27T10:58:48.161Z,101452.63
2023-04-27T11:01:25.419Z,101458.44
2023-04-27T11:03:56.473Z,101457.16
2023-04-27T11:06:24.639Z,101454.88
2023-04-27T11:08:53.958Z,101465.28
2023-04-27T11:11:22.601Z,101466.16
2023-04-27T11:13:52.741Z,101455.31
2023-04-27T11:16:20.848Z,101450.19
2023-04-27T11:18:48.953Z,101447.69
2023-04-27T11:21:17.741Z,101449.84
2023-04-27T11:23:45.837Z,101440.81
2023-04-27T11:26:17.219Z,101436.13
2023-04-27T11:28:45.860Z,101453.31
2023-04-27T11:31:13.906Z,101453.13
2023-04-27T11:33:49.813Z,101449.38
2023-04-27T11:36:18.160Z,101443.31
2023-04-27T11:38:46.614Z,101444.31
2023-04-27T11:41:16.071Z,101442.44
2023-04-27T11:43:46.276Z,101447.16
2023-04-27T11:46:14.216Z,101442.22
2023-04-27T11:48:42.213Z,101436.50
2023-04-27T11:51:12.496Z,101439.91
2023-04-27T11:53:42.558Z,101435.78
2023-04-27T11:56:12.234Z,101431.31
2023-04-27T11:58:44.348Z,101432.78
2023-04-27T12:01:13.062Z,101420.84
2023-04-27T12:03:41.796Z,101431.72
2023-04-27T12:06:27.609Z,101419.72
2023-04-27T12:08:58.357Z,101423.94
2023-04-27T12:11:27.720Z,101425.16
2023-04-27T12:13:57.872Z,101430.47
2023-04-27T12:16:25.964Z,101421.03
2023-04-27T12:18:54.033Z,101421.44
2023-04-27T12:21:22.250Z,101418.91
2023-04-27T12:23:50.184Z,101413.03
2023-04-27T12:26:18.495Z,101421.59
2023-04-27T12:28:46.591Z,101426.69
2023-04-27T12:31:18.874Z,101423.44
2023-04-27T12:33:49.367Z,101425.97
2023-04-27T12:36:17.584Z,101427.38
2023-04-27T12:38:45.782Z,101416.91
2023-04-27T12:41:13.838Z,101415.50
2023-04-27T12:43:43.660Z,101418.22
2023-04-27T12:46:11.888Z,101416.31
2023-04-27T12:48:41.520Z,101419.31
2023-04-27T12:51:09.619Z,101409.81
2023-04-27T12:53:37.691Z,101406.53
2023-04-27T12:56:06.663Z,101406.56
2023-04-27T12:58:35.110Z,101399.88
2023-04-27T13:01:03.242Z,101392.72
2023-04-27T13:03:32.786Z,101407.59
2023-04-27T13:06:02.258Z,101406.16
2023-04-27T13:08:30.851Z,101405.94
2023-04-27T13:10:58.923Z,101399.41
2023-04-27T13:13:27.100Z,101397.34
2023-04-27T13:15:56.406Z,101397.75
2023-04-27T13:18:24.631Z,101408.13
2023-04-27T13:20:52.721Z,101409.09
2023-04-27T13:23:22.737Z,101403.19
2023-04-27T13:25:53.703Z,101407.78
2023-04-27T13:28:21.841Z,101398.47
2023-04-27T13:30:50.078Z,101398.72
2023-04-27T13:33:23.266Z,101401.91
2023-04-27T13:35:52.126Z,101401.69
2023-04-27T13:38:20.916Z,101398.06
2023-04-27T13:40:50.433Z,101399.81
2023-04-27T13:43:18.458Z,101395.41
2023-04-27T13:45:46.377Z,101401.00
2023-04-27T13:48:14.285Z,101407.03
2023-04-27T13:50:42.236Z,101395.94
2023-04-27T13:53:10.266Z,101405.41
2023-04-27T13:55:38.230Z,101390.28
2023-04-27T13:58:07.924Z,101406.09
2023-04-27T14:00:35.862Z,101393.69
2023-04-27T14:03:04.942Z,101399.03
2023-04-27T14:05:33.025Z,101393.94
2023-04-27T14:08:01.120Z,101398.09
2023-04-27T14:10:29.111Z,101392.25
2023-04-27T14:12:57.942Z,101386.03
2023-04-27T14:15:27.491Z,101374.13
2023-04-27T14:17:55.450Z,101369.47
2023-04-27T14:20:23.459Z,101376.13
2023-04-27T14:22:51.448Z,101374.59
2023-04-27T14:25:19.649Z,101362.03
2023-04-27T14:27:47.707Z,101355.63
2023-04-27T14:30:16.337Z,101362.25
2023-04-27T14:32:46.201Z,101351.50
2023-04-27T14:35:14.154Z,101354.41
2023-04-27T14:37:42.046Z,101364.91
2023-04-27T14:40:11.080Z,101351.19
2023-04-27T14:42:39.011Z,101355.63
2023-04-27T14:45:08.198Z,101354.69
2023-04-27T14:47:36.040Z,101347.19
2023-04-27T14:50:06.571Z,101351.16
2023-04-27T14:52:34.429Z,101360.75
2023-04-27T14:55:02.243Z,101346.88
2023-04-27T14:57:30.415Z,101346.44
2023-04-27T14:59:58.999Z,101341.44
2023-04-27T15:02:27.442Z,101330.50
2023-04-27T15:04:55.478Z,101333.69
2023-04-27T15:07:24.881Z,101330.53
2023-04-27T15:09:54.213Z,101338.59
2023-04-27T15:12:23.023Z,101334.16
2023-04-27T15:14:52.765Z,101331.25
2023-04-27T15:17:20.714Z,101338.50
2023-04-27T15:19:48.642Z,101318.28
2023-04-27T15:22:16.471Z,101320.53
2023-04-27T15:24:45.762Z,101318.97
2023-04-27T15:27:14.162Z,101312.78
2023-04-27T15:29:42.518Z,101315.53
2023-04-27T15:32:10.750Z,101324.78
2023-04-27T15:34:38.723Z,101331.31
2023-04-27T15:37:06.820Z,101316.53
2023-04-27T15:39:34.780Z,101310.00
2023-04-27T15:42:04.725Z,101319.34
2023-04-27T15:44:32.678Z,101312.59
2023-04-27T15:47:00.759Z,101318.63
2023-04-27T15:49:30.136Z,101313.59
2023-04-27T15:51:59.271Z,101316.63
2023-04-27T15:54:27.308Z,101308.88
2023-04-27T15:56:55.408Z,101311.25
2023-04-27T15:59:30.844Z,101293.81
2023-04-27T16:01:59.734Z,101291.31
2023-04-27T16:04:27.934Z,101285.44
2023-04-27T16:06:56.050Z,101287.16
2023-04-27T16:09:25.538Z,101297.06
2023-04-27T16:11:56.012Z,101292.44
2023-04-27T16:14:25.662Z,101295.53
2023-04-27T16:16:55.017Z,101289.53
2023-04-27T16:19:23.534Z,101290.69
2023-04-27T16:21:51.574Z,101295.28
2023-04-27T16:24:19.953Z,101288.13
2023-04-27T16:26:48.524Z,101284.31
2023-04-27T16:29:16.730Z,101281.25
2023-04-27T16:31:46.558Z,101273.00
2023-04-27T16:34:14.494Z,101280.88
2023-04-27T16:36:43.336Z,101274.59
2023-04-27T16:39:11.549Z,101282.31
2023-04-27T16:41:39.798Z,101285.03
2023-04-27T16:44:07.679Z,101280.97
2023-04-27T16:46:35.895Z,101290.66
2023-04-27T16:49:05.273Z,101284.03
2023-04-27T16:51:33.849Z,101295.25
2023-04-27T16:54:02.572Z,101296.63
2023-04-27T16:56:32.509Z,101293.56
2023-04-27T16:59:01.154Z,101295.09
2023-04-27T17:01:30.056Z,101296.84
2023-04-27T17:03:59.000Z,101297.31
2023-04-27T17:06:29.978Z,101301.44
2023-04-27T17:08:58.649Z,101303.22
2023-04-27T17:11:26.713Z,101293.38
2023-04-27T17:13:54.782Z,101290.56
2023-04-27T17:16:23.491Z,101295.84
2023-04-27T17:18:51.431Z,101299.44
2023-04-27T17:21:23.080Z,101301.78
2023-04-27T17:23:53.208Z,101291.78
2023-04-27T17:26:21.725Z,101281.38
2023-04-27T17:28:50.356Z,101279.91
2023-04-27T17:31:18.496Z,101283.81
2023-04-27T17:33:46.720Z,101281.56
2023-04-27T17:36:15.025Z,101280.69
2023-04-27T17:38:43.038Z,101281.19
2023-04-27T17:41:12.150Z,101278.47
2023-04-27T17:43:40.061Z,101278.59
2023-04-27T17:46:09.710Z,101279.22
2023-04-27T17:48:38.078Z,101279.25
2023-04-27T17:51:06.096Z,101281.28
2023-04-27T17:53:34.149Z,101287.78
2023-04-27T17:56:01.953Z,101281.38
2023-04-27T17:58:32.420Z,101284.22
2023-04-27T18:01:00.974Z,101278.09
2023-04-27T18:03:29.096Z,101281.75
2023-04-27T18:05:57.298Z,101283.03
2023-04-27T18:08:25.091Z,101264.72
2023-04-27T18:10:52.943Z,101271.78
2023-04-27T18:13:21.119Z,101275.16
2023-04-27T18:15:50.623Z,101269.69
2023-04-27T18:18:22.590Z,101269.16
2023-04-27T18:20:52.837Z,101273.78
2023-04-27T18:23:20.957Z,101263.56
2023-04-27T18:25:49.597Z,101264.38
2023-04-27T18:28:17.660Z,101272.84
2023-04-27T18:30:45.520Z,101272.06
2023-04-27T18:33:17.379Z,101271.38
2023-04-27T18:35:45.320Z,101280.31
2023-04-27T18:38:13.145Z,101273.84
2023-04-27T18:40:41.528Z,101282.34
2023-04-27T18:43:09.949Z,101273.22
2023-04-27T18:45:37.892Z,101281.28
2023-04-27T18:48:05.992Z,101284.38
2023-04-27T18:50:35.367Z,101285.53
2023-04-27T18:53:03.247Z,101283.69
2023-04-27T18:55:31.534Z,101280.13
2023-04-27T18:57:59.405Z,101280.88
2023-04-27T19:00:28.604Z,101280.00
2023-04-27T19:02:56.845Z,101279.47
2023-04-27T19:05:25.064Z,101282.47
2023-04-27T19:07:54.599Z,101280.91
2023-04-27T19:10:22.427Z,101279.22
2023-04-27T19:12:51.279Z,101279.00
2023-04-27T19:15:19.013Z,101283.88
2023-04-27T19:17:48.757Z,101273.94
2023-04-27T19:20:20.776Z,101272.91
2023-04-27T19:22:48.800Z,101274.78
2023-04-27T19:25:17.999Z,101275.09
2023-04-27T19:27:46.149Z,101265.50
2023-04-27T19:30:14.175Z,101266.34
2023-04-27T19:32:43.508Z,101256.25
2023-04-27T19:35:12.492Z,101268.75
2023-04-27T19:37:40.374Z,101270.34
2023-04-27T19:40:09.450Z,101269.31
2023-04-27T19:42:39.180Z,101266.28
2023-04-27T19:45:08.430Z,101264.28
2023-04-27T19:47:36.404Z,101257.81
2023-04-27T19:50:04.918Z,101263.03
2023-04-27T19:52:33.067Z,101254.03
2023-04-27T19:55:01.004Z,101258.16
2023-04-27T19:57:28.859Z,101264.34
2023-04-27T19:59:58.164Z,101268.94
2023-04-27T20:02:26.201Z,101271.25
2023-04-27T20:04:54.563Z,101272.28
2023-04-27T20:07:22.942Z,101264.09
2023-04-27T20:09:50.814Z,101260.78
2023-04-27T20:12:37.389Z,101268.56
2023-04-27T20:15:09.494Z,101266.59
2023-04-27T20:17:37.717Z,101267.47
2023-04-27T20:20:09.996Z,101266.94
2023-04-27T20:22:38.304Z,101265.25
2023-04-27T20:25:07.886Z,101264.59
2023-04-27T20:27:35.957Z,101271.81
2023-04-27T20:30:04.189Z,101262.28
2023-04-27T20:32:33.528Z,101271.44
2023-04-27T20:35:02.569Z,101274.78
2023-04-27T20:37:32.141Z,101273.38
2023-04-27T20:40:00.916Z,101267.47
2023-04-27T20:42:29.563Z,101261.75
2023-04-27T20:44:57.470Z,101265.44
2023-04-27T20:47:25.886Z,101262.75
2023-04-27T20:49:55.126Z,101258.84
2023-04-27T20:52:23.108Z,101257.81
2023-04-27T20:54:50.997Z,101257.94
2023-04-27T20:57:18.988Z,101246.38
2023-04-27T20:59:46.914Z,101249.81
2023-04-27T21:02:15.192Z,101245.03
2023-04-27T21:04:43.251Z,101241.19
2023-04-27T21:07:12.872Z,101237.13
2023-04-27T21:09:43.115Z,101235.72
2023-04-27T21:12:11.288Z,101236.41
2023-04-27T21:14:39.502Z,101237.66
2023-04-27T21:17:07.719Z,101235.50
2023-04-27T21:19:35.860Z,101236.66
2023-04-27T21:22:03.834Z,101230.84
2023-04-27T21:24:33.174Z,101238.41
2023-04-27T21:27:01.396Z,101236.25
2023-04-27T21:29:29.278Z,101234.06
2023-04-27T21:31:57.131Z,101225.81
2023-04-27T21:34:25.104Z,101234.28
2023-04-27T21:36:53.057Z,101227.19
2023-04-27T21:39:21.240Z,101219.72
2023-04-27T21:41:50.486Z,101231.63
2023-04-27T21:44:18.387Z,101228.16
2023-04-27T21:46:46.493Z,101228.25
2023-04-27T21:49:14.502Z,101223.38
2023-04-27T21:51:42.418Z,101222.56
2023-04-27T21:54:10.607Z,101222.72
2023-04-27T21:56:38.746Z,101221.56
2023-04-27T21:59:08.106Z,101216.97
2023-04-27T22:01:37.828Z,101227.41
2023-04-27T22:04:06.382Z,101221.91
2023-04-27T22:06:34.461Z,101221.28
2023-04-27T22:09:02.908Z,101215.28
2023-04-27T22:11:31.309Z,101205.50
2023-04-27T22:13:59.287Z,101209.13
2023-04-27T22:16:30.153Z,101206.34
2023-04-27T22:18:58.530Z,101193.31
2023-04-27T22:21:27.283Z,101199.13
2023-04-27T22:23:55.353Z,101191.19
2023-04-27T22:26:23.533Z,101180.28
2023-04-27T22:28:51.460Z,101188.75
2023-04-27T22:31:19.470Z,101179.63
2023-04-27T22:33:48.771Z,101182.72
2023-04-27T22:36:16.678Z,101178.88
2023-04-27T22:38:45.011Z,101170.44
2023-04-27T22:41:13.035Z,101167.41
2023-04-27T22:43:40.912Z,101166.31
2023-04-27T22:46:08.816Z,101165.31
2023-04-27T22:48:36.913Z,101162.56
2023-04-27T22:51:10.604Z,101159.28
2023-04-27T22:53:38.834Z,101154.31
2023-04-27T22:56:07.769Z,101154.88
2023-04-27T22:58:36.663Z,101154.34
2023-04-27T23:01:05.060Z,101152.13
2023-04-27T23:03:33.243Z,101150.94
2023-04-27T23:06:01.425Z,101159.63
2023-04-27T23:08:30.838Z,101155.84
2023-04-27T23:10:58.836Z,101154.97
2023-04-27T23:13:27.836Z,101145.88
2023-04-27T23:15:55.899Z,101150.53
2023-04-27T23:18:23.962Z,101148.09
2023-04-27T23:20:54.628Z,101139.81
2023-04-27T23:23:23.099Z,101143.19
2023-04-27T23:25:52.521Z,101131.63
2023-04-27T23:28:20.812Z,101130.16
2023-04-27T23:30:53.868Z,101128.63
2023-04-27T23:33:22.124Z,101124.38
2023-04-27T23:35:49.893Z,101131.78
2023-04-27T23:38:17.948Z,101128.56
2023-04-27T23:40:45.744Z,101129.97
2023-04-27T23:43:14.949Z,101128.72
2023-04-27T23:45:42.912Z,101115.38
2023-04-27T23:48:10.739Z,101108.88
2023-04-27T23:50:38.588Z,101115.41
2023-04-27T23:53:06.388Z,101104.44
2023-04-27T23:55:35.559Z,101096.59
2023-04-27T23:58:03.606Z,101098.41
